sensor_id;sensor_type;location;lat;lon;timestamp;pressure;altitude;pressure_sealevel;temperature;humidity
19594;BME280;9944;48.240;16.478;2022-10-22T00:01:23;99795.69;;;9.80;62.63
19594;BME280;9944;48.240;16.478;2022-10-22T00:05:28;99791.28;;;9.80;62.64
19594;BME280;9944;48.240;16.478;2022-10-22T00:09:31;99797.44;;;9.78;63.06
19594;BME280;9944;48.240;16.478;2022-10-22T00:13:34;99788.69;;;9.79;62.80
19594;BME280;9944;48.240;16.478;2022-10-22T00:17:38;99786.91;;;9.81;63.12
19594;BME280;9944;48.240;16.478;2022-10-22T00:21:42;99783.38;;;9.82;63.03
19594;BME280;9944;48.240;16.478;2022-10-22T00:25:45;99777.25;;;9.83;63.13
19594;BME280;9944;48.240;16.478;2022-10-22T00:29:48;99780.75;;;9.83;63.31
19594;BME280;9944;48.240;16.478;2022-10-22T00:33:53;99780.75;;;9.85;63.54
19594;BME280;9944;48.240;16.478;2022-10-22T00:37:56;99769.34;;;9.86;63.18
19594;BME280;9944;48.240;16.478;2022-10-22T00:41:59;99755.28;;;9.82;63.32
19594;BME280;9944;48.240;16.478;2022-10-22T00:46:02;99747.38;;;9.75;63.45
19594;BME280;9944;48.240;16.478;2022-10-22T00:50:09;99762.31;;;9.73;63.49
19594;BME280;9944;48.240;16.478;2022-10-22T00:54:13;99747.38;;;9.73;63.71
19594;BME280;9944;48.240;16.478;2022-10-22T00:58:17;99752.63;;;9.73;63.91
19594;BME280;9944;48.240;16.478;2022-10-22T01:02:22;99753.53;;;9.71;63.78
19594;BME280;9944;48.240;16.478;2022-10-22T01:06:28;99749.13;;;9.68;64.15
19594;BME280;9944;48.240;16.478;2022-10-22T01:10:42;99740.34;;;9.66;64.11
19594;BME280;9944;48.240;16.478;2022-10-22T01:14:59;99746.50;;;9.63;64.23
19594;BME280;9944;48.240;16.478;2022-10-22T01:19:19;99754.41;;;9.62;64.10
19594;BME280;9944;48.240;16.478;2022-10-22T01:23:48;99759.69;;;9.59;64.36
19594;BME280;9944;48.240;16.478;2022-10-22T01:28:03;99758.81;;;9.54;64.33
19594;BME280;9944;48.240;16.478;2022-10-22T01:32:15;99744.75;;;9.50;64.65
19594;BME280;9944;48.240;16.478;2022-10-22T01:36:20;99726.28;;;9.45;64.53
19594;BME280;9944;48.240;16.478;2022-10-22T01:40:23;99718.41;;;9.41;64.67
19594;BME280;9944;48.240;16.478;2022-10-22T01:44:28;99705.25;;;9.39;64.55
19594;BME280;9944;48.240;16.478;2022-10-22T01:48:41;99714.00;;;9.38;64.90
19594;BME280;9944;48.240;16.478;2022-10-22T01:53:16;99714.00;;;9.37;64.74
19594;BME280;9944;48.240;16.478;2022-10-22T01:57:26;99690.28;;;9.35;64.92
19594;BME280;9944;48.240;16.478;2022-10-22T02:01:40;99696.47;;;9.34;64.86
19594;BME280;9944;48.240;16.478;2022-10-22T02:05:52;99695.56;;;9.35;65.14
19594;BME280;9944;48.240;16.478;2022-10-22T02:09:57;99688.56;;;9.36;65.03
19594;BME280;9944;48.240;16.478;2022-10-22T02:14:02;99680.66;;;9.33;65.13
19594;BME280;9944;48.240;16.478;2022-10-22T02:18:07;99676.28;;;9.28;65.18
19594;BME280;9944;48.240;16.478;2022-10-22T02:22:12;99691.19;;;9.26;65.19
19594;BME280;9944;48.240;16.478;2022-10-22T02:26:19;99699.97;;;9.25;65.16
19594;BME280;9944;48.240;16.478;2022-10-22T02:30:25;99699.97;;;9.19;65.62
19594;BME280;9944;48.240;16.478;2022-10-22T02:34:29;99687.69;;;9.14;65.56
19594;BME280;9944;48.240;16.478;2022-10-22T02:38:35;99693.84;;;9.11;65.46
19594;BME280;9944;48.240;16.478;2022-10-22T02:42:40;99691.19;;;9.08;65.69
19594;BME280;9944;48.240;16.478;2022-10-22T02:46:43;99685.06;;;9.06;65.61
19594;BME280;9944;48.240;16.478;2022-10-22T02:50:47;99679.75;;;8.98;65.83
19594;BME280;9944;48.240;16.478;2022-10-22T02:54:51;99676.25;;;8.91;65.87
19594;BME280;9944;48.240;16.478;2022-10-22T02:58:54;99670.09;;;8.91;66.12
19594;BME280;9944;48.240;16.478;2022-10-22T03:02:57;99670.97;;;8.91;66.25
19594;BME280;9944;48.240;16.478;2022-10-22T03:07:00;99693.81;;;8.91;66.26
19594;BME280;9944;48.240;16.478;2022-10-22T03:11:05;99679.75;;;8.89;66.35
19594;BME280;9944;48.240;16.478;2022-10-22T03:15:09;99678.00;;;8.86;66.36
19594;BME280;9944;48.240;16.478;2022-10-22T03:19:12;99674.47;;;8.81;66.22
19594;BME280;9944;48.240;16.478;2022-10-22T03:23:18;99685.03;;;8.78;66.45
19594;BME280;9944;48.240;16.478;2022-10-22T03:27:23;99677.13;;;8.78;66.54
19594;BME280;9944;48.240;16.478;2022-10-22T03:31:26;99669.22;;;8.78;66.69
19594;BME280;9944;48.240;16.478;2022-10-22T03:35:29;99663.97;;;8.75;66.81
19594;BME280;9944;48.240;16.478;2022-10-22T03:39:34;99657.81;;;8.71;66.79
19594;BME280;9944;48.240;16.478;2022-10-22T03:43:39;99651.66;;;8.71;66.72
19594;BME280;9944;48.240;16.478;2022-10-22T03:47:42;99665.69;;;8.70;67.11
19594;BME280;9944;48.240;16.478;2022-10-22T03:51:46;99670.94;;;8.67;66.78
19594;BME280;9944;48.240;16.478;2022-10-22T03:55:49;99656.91;;;8.62;67.05
19594;BME280;9944;48.240;16.478;2022-10-22T03:59:53;99642.00;;;8.54;66.98
19594;BME280;9944;48.240;16.478;2022-10-22T04:03:57;99654.25;;;8.49;67.12
19594;BME280;9944;48.240;16.478;2022-10-22T04:08:00;99667.41;;;8.48;67.35
19594;BME280;9944;48.240;16.478;2022-10-22T04:12:04;99670.91;;;8.45;67.31
19594;BME280;9944;48.240;16.478;2022-10-22T04:16:12;99689.31;;;8.42;67.59
19594;BME280;9944;48.240;16.478;2022-10-22T04:20:15;99689.28;;;8.39;67.52
19594;BME280;9944;48.240;16.478;2022-10-22T04:24:18;99691.91;;;8.36;67.55
19594;BME280;9944;48.240;16.478;2022-10-22T04:28:21;99678.78;;;8.33;68.13
19594;BME280;9944;48.240;16.478;2022-10-22T04:32:27;99672.59;;;8.28;68.00
19594;BME280;9944;48.240;16.478;2022-10-22T04:36:30;99671.66;;;8.26;67.84
19594;BME280;9944;48.240;16.478;2022-10-22T04:40:32;99661.16;;;8.26;68.36
19594;BME280;9944;48.240;16.478;2022-10-22T04:44:35;99674.31;;;8.26;68.02
19594;BME280;9944;48.240;16.478;2022-10-22T04:48:41;99669.03;;;8.26;68.44
19594;BME280;9944;48.240;16.478;2022-10-22T04:52:44;99673.44;;;8.25;68.49
19594;BME280;9944;48.240;16.478;2022-10-22T04:56:47;99672.56;;;8.25;68.60
19594;BME280;9944;48.240;16.478;2022-10-22T05:00:50;99683.97;;;8.27;69.01
19594;BME280;9944;48.240;16.478;2022-10-22T05:04:55;99679.56;;;8.29;69.41
19594;BME280;9944;48.240;16.478;2022-10-22T05:09:00;99684.84;;;8.29;69.16
19594;BME280;9944;48.240;16.478;2022-10-22T05:13:03;99674.31;;;8.29;69.28
19594;BME280;9944;48.240;16.478;2022-10-22T05:17:06;99676.97;;;8.30;69.58
19594;BME280;9944;48.240;16.478;2022-10-22T05:21:12;99684.91;;;8.33;69.65
19594;BME280;9944;48.240;16.478;2022-10-22T05:25:16;99686.66;;;8.36;69.82
19594;BME280;9944;48.240;16.478;2022-10-22T05:29:20;99680.53;;;8.37;69.48
19594;BME280;9944;48.240;16.478;2022-10-22T05:33:23;99675.28;;;8.40;69.73
19594;BME280;9944;48.240;16.478;2022-10-22T05:37:30;99695.44;;;8.41;69.52
19594;BME280;9944;48.240;16.478;2022-10-22T05:41:33;99715.59;;;8.41;69.77
19594;BME280;9944;48.240;16.478;2022-10-22T05:45:37;99717.38;;;8.42;69.58
19594;BME280;9944;48.240;16.478;2022-10-22T05:49:40;99722.63;;;8.45;69.87
19594;BME280;9944;48.240;16.478;2022-10-22T05:53:45;99735.81;;;8.49;69.91
19594;BME280;9944;48.240;16.478;2022-10-22T05:57:52;99721.81;;;8.52;69.74
19594;BME280;9944;48.240;16.478;2022-10-22T06:01:55;99691.97;;;8.51;69.56
19594;BME280;9944;48.240;16.478;2022-10-22T06:05:59;99684.94;;;8.49;69.29
19594;BME280;9944;48.240;16.478;2022-10-22T06:10:07;99692.84;;;8.53;69.79
19594;BME280;9944;48.240;16.478;2022-10-22T06:14:11;99706.00;;;8.57;69.90
19594;BME280;9944;48.240;16.478;2022-10-22T06:18:14;99719.19;;;8.64;70.00
19594;BME280;9944;48.240;16.478;2022-10-22T06:22:17;99728.88;;;8.71;69.87
19594;BME280;9944;48.240;16.478;2022-10-22T06:26:22;99745.56;;;8.77;69.83
19594;BME280;9944;48.240;16.478;2022-10-22T06:30:25;99742.91;;;8.81;69.26
19594;BME280;9944;48.240;16.478;2022-10-22T06:34:28;99744.72;;;8.88;69.36
19594;BME280;9944;48.240;16.478;2022-10-22T06:38:31;99743.81;;;8.89;69.03
19594;BME280;9944;48.240;16.478;2022-10-22T06:42:35;99738.56;;;8.94;69.05
19594;BME280;9944;48.240;16.478;2022-10-22T06:46:39;99749.97;;;9.04;68.81
19594;BME280;9944;48.240;16.478;2022-10-22T06:50:44;99747.38;;;9.11;68.79
19594;BME280;9944;48.240;16.478;2022-10-22T06:54:47;99757.91;;;9.22;68.70
19594;BME280;9944;48.240;16.478;2022-10-22T06:58:53;99760.53;;;9.31;68.44
19594;BME280;9944;48.240;16.478;2022-10-22T07:02:56;99764.09;;;9.43;68.10
19594;BME280;9944;48.240;16.478;2022-10-22T07:07:00;99772.88;;;9.48;67.91
19594;BME280;9944;48.240;16.478;2022-10-22T07:11:08;99793.94;;;9.56;67.67
19594;BME280;9944;48.240;16.478;2022-10-22T07:15:13;99804.50;;;9.60;67.73
19594;BME280;9944;48.240;16.478;2022-10-22T07:19:16;99812.38;;;9.66;67.79
19594;BME280;9944;48.240;16.478;2022-10-22T07:23:20;99832.59;;;9.77;67.66
19594;BME280;9944;48.240;16.478;2022-10-22T07:27:23;99850.19;;;9.81;67.39
19594;BME280;9944;48.240;16.478;2022-10-22T07:31:27;99853.69;;;9.84;67.33
19594;BME280;9944;48.240;16.478;2022-10-22T07:35:31;99848.44;;;9.89;67.45
19594;BME280;9944;48.240;16.478;2022-10-22T07:39:35;99855.50;;;9.95;67.24
19594;BME280;9944;48.240;16.478;2022-10-22T07:43:38;99860.75;;;9.99;67.10
19594;BME280;9944;48.240;16.478;2022-10-22T07:47:43;99848.44;;;10.04;66.99
19594;BME280;9944;48.240;16.478;2022-10-22T07:51:46;99861.63;;;10.12;66.94
19594;BME280;9944;48.240;16.478;2022-10-22T07:55:50;99872.16;;;10.21;66.68
19594;BME280;9944;48.240;16.478;2022-10-22T07:59:53;99888.88;;;10.28;66.71
19594;BME280;9944;48.240;16.478;2022-10-22T08:03:58;99887.97;;;10.32;66.70
19594;BME280;9944;48.240;16.478;2022-10-22T08:08:01;99894.13;;;10.37;66.77
19594;BME280;9944;48.240;16.478;2022-10-22T08:12:05;99886.22;;;10.42;66.96
19594;BME280;9944;48.240;16.478;2022-10-22T08:16:08;99890.59;;;10.51;66.78
19594;BME280;9944;48.240;16.478;2022-10-22T08:20:13;99885.31;;;10.54;66.18
19594;BME280;9944;48.240;16.478;2022-10-22T08:24:16;99863.31;;;10.56;66.53
19594;BME280;9944;48.240;16.478;2022-10-22T08:28:19;99845.69;;;10.61;66.71
19594;BME280;9944;48.240;16.478;2022-10-22T08:32:23;99852.69;;;10.67;66.91
19594;BME280;9944;48.240;16.478;2022-10-22T08:36:30;99879.09;;;10.75;66.82
19594;BME280;9944;48.240;16.478;2022-10-22T08:40:36;99883.47;;;10.77;66.71
19594;BME280;9944;48.240;16.478;2022-10-22T08:44:51;99869.41;;;10.81;67.08
19594;BME280;9944;48.240;16.478;2022-10-22T08:49:00;99845.59;;;10.86;67.22
19594;BME280;9944;48.240;16.478;2022-10-22T08:53:13;99850.00;;;10.89;67.15
19594;BME280;9944;48.240;16.478;2022-10-22T08:57:33;99878.19;;;10.90;67.65
19594;BME280;9944;48.240;16.478;2022-10-22T09:01:44;99872.88;;;10.93;67.72
19594;BME280;9944;48.240;16.478;2022-10-22T09:05:56;99882.56;;;10.89;68.82
19594;BME280;9944;48.240;16.478;2022-10-22T09:10:07;99870.25;;;10.85;69.01
19594;BME280;9944;48.240;16.478;2022-10-22T09:14:13;99868.53;;;10.78;69.46
19594;BME280;9944;48.240;16.478;2022-10-22T09:18:27;99872.03;;;10.78;70.24
19594;BME280;9944;48.240;16.478;2022-10-22T09:22:37;99860.63;;;10.79;70.99
19594;BME280;9944;48.240;16.478;2022-10-22T09:26:43;99855.28;;;10.82;71.48
19594;BME280;9944;48.240;16.478;2022-10-22T09:30:46;99866.75;;;10.80;71.73
19594;BME280;9944;48.240;16.478;2022-10-22T09:34:49;99875.56;;;10.79;72.38
19594;BME280;9944;48.240;16.478;2022-10-22T09:38:56;99875.56;;;10.79;72.44
19594;BME280;9944;48.240;16.478;2022-10-22T09:43:01;99881.75;;;10.79;73.03
19594;BME280;9944;48.240;16.478;2022-10-22T09:47:04;99884.34;;;10.84;73.32
19594;BME280;9944;48.240;16.478;2022-10-22T09:51:13;99879.97;;;10.85;73.28
19594;BME280;9944;48.240;16.478;2022-10-22T09:55:17;99876.41;;;10.82;73.40
19594;BME280;9944;48.240;16.478;2022-10-22T09:59:28;99884.34;;;10.84;73.40
19594;BME280;9944;48.240;16.478;2022-10-22T10:03:31;99884.34;;;10.82;73.68
19594;BME280;9944;48.240;16.478;2022-10-22T10:07:35;99892.25;;;10.82;73.30
19594;BME280;9944;48.240;16.478;2022-10-22T10:11:43;99894.91;;;10.82;73.84
19594;BME280;9944;48.240;16.478;2022-10-22T10:15:54;99895.81;;;10.85;74.03
19594;BME280;9944;48.240;16.478;2022-10-22T10:20:07;99904.59;;;10.84;73.87
19594;BME280;9944;48.240;16.478;2022-10-22T10:24:21;99902.88;;;10.79;73.91
19594;BME280;9944;48.240;16.478;2022-10-22T10:28:39;99903.72;;;10.72;73.81
19594;BME280;9944;48.240;16.478;2022-10-22T10:32:59;99894.06;;;10.71;74.43
19594;BME280;9944;48.240;16.478;2022-10-22T10:37:14;99904.63;;;10.71;74.55
19594;BME280;9944;48.240;16.478;2022-10-22T10:41:26;99906.38;;;10.72;74.67
19594;BME280;9944;48.240;16.478;2022-10-22T10:45:39;99888.78;;;10.71;74.89
19594;BME280;9944;48.240;16.478;2022-10-22T10:49:45;99893.16;;;10.72;75.16
19594;BME280;9944;48.240;16.478;2022-10-22T10:53:59;99889.66;;;10.75;75.12
19594;BME280;9944;48.240;16.478;2022-10-22T10:58:12;99890.53;;;10.75;75.64
19594;BME280;9944;48.240;16.478;2022-10-22T11:02:53;99880.84;;;10.79;76.03
19594;BME280;9944;48.240;16.478;2022-10-22T11:07:04;99871.13;;;10.84;75.74
19594;BME280;9944;48.240;16.478;2022-10-22T11:11:20;99868.50;;;10.86;76.00
19594;BME280;9944;48.240;16.478;2022-10-22T11:15:28;99876.41;;;10.90;76.35
19594;BME280;9944;48.240;16.478;2022-10-22T11:19:36;99862.28;;;10.93;77.15
19594;BME280;9944;48.240;16.478;2022-10-22T11:24:01;99864.03;;;11.00;77.26
19594;BME280;9944;48.240;16.478;2022-10-22T11:28:10;99857.88;;;11.04;77.09
19594;BME280;9944;48.240;16.478;2022-10-22T11:32:18;99848.16;;;11.09;77.63
19594;BME280;9944;48.240;16.478;2022-10-22T11:36:22;99853.38;;;11.18;77.83
19594;BME280;9944;48.240;16.478;2022-10-22T11:40:35;99865.66;;;11.23;77.47
19594;BME280;9944;48.240;16.478;2022-10-22T11:44:46;99858.59;;;11.28;77.65
19594;BME280;9944;48.240;16.478;2022-10-22T11:49:01;99856.84;;;11.34;77.72
19594;BME280;9944;48.240;16.478;2022-10-22T11:53:15;99863.88;;;11.37;77.91
19594;BME280;9944;48.240;16.478;2022-10-22T11:57:25;99862.97;;;11.44;78.33
19594;BME280;9944;48.240;16.478;2022-10-22T12:01:39;99864.66;;;11.51;78.35
19594;BME280;9944;48.240;16.478;2022-10-22T12:05:44;99855.81;;;11.54;78.43
19594;BME280;9944;48.240;16.478;2022-10-22T12:09:51;99850.53;;;11.54;78.41
19594;BME280;9944;48.240;16.478;2022-10-22T12:14:15;99847.88;;;11.55;79.08
19594;BME280;9944;48.240;16.478;2022-10-22T12:18:22;99848.78;;;11.58;79.20
19594;BME280;9944;48.240;16.478;2022-10-22T12:22:29;99847.00;;;11.60;79.25
19594;BME280;9944;48.240;16.478;2022-10-22T12:26:33;99841.69;;;11.61;78.89
19594;BME280;9944;48.240;16.478;2022-10-22T12:30:37;99846.09;;;11.61;79.30
19594;BME280;9944;48.240;16.478;2022-10-22T12:34:45;99848.72;;;11.65;79.61
19594;BME280;9944;48.240;16.478;2022-10-22T12:38:54;99842.50;;;11.71;79.82
19594;BME280;9944;48.240;16.478;2022-10-22T12:43:09;99847.72;;;11.80;80.01
19594;BME280;9944;48.240;16.478;2022-10-22T12:47:15;99848.53;;;11.87;80.52
19594;BME280;9944;48.240;16.478;2022-10-22T12:51:19;99841.50;;;11.89;80.48
19594;BME280;9944;48.240;16.478;2022-10-22T12:55:24;99834.38;;;11.94;80.86
19594;BME280;9944;48.240;16.478;2022-10-22T12:59:29;99838.75;;;11.98;80.94
19594;BME280;9944;48.240;16.478;2022-10-22T13:03:40;99838.75;;;12.00;80.72
19594;BME280;9944;48.240;16.478;2022-10-22T13:07:47;99845.75;;;12.04;80.91
19594;BME280;9944;48.240;16.478;2022-10-22T13:11:54;99847.50;;;12.06;81.24
19594;BME280;9944;48.240;16.478;2022-10-22T13:16:16;99841.31;;;12.06;81.63
19594;BME280;9944;48.240;16.478;2022-10-22T13:20:22;99841.31;;;12.07;81.22
19594;BME280;9944;48.240;16.478;2022-10-22T13:24:25;99839.50;;;12.09;81.72
19594;BME280;9944;48.240;16.478;2022-10-22T13:28:31;99838.63;;;12.12;81.89
19594;BME280;9944;48.240;16.478;2022-10-22T13:32:34;99835.03;;;12.16;81.75
19594;BME280;9944;48.240;16.478;2022-10-22T13:36:39;99820.06;;;12.17;81.89
19594;BME280;9944;48.240;16.478;2022-10-22T13:40:42;99820.97;;;12.14;81.82
19594;BME280;9944;48.240;16.478;2022-10-22T13:45:00;99835.97;;;12.15;82.23
19594;BME280;9944;48.240;16.478;2022-10-22T13:49:03;99829.75;;;12.18;82.38
19594;BME280;9944;48.240;16.478;2022-10-22T13:53:14;99838.53;;;12.21;82.64
19594;BME280;9944;48.240;16.478;2022-10-22T13:57:20;99841.13;;;12.26;82.49
19594;BME280;9944;48.240;16.478;2022-10-22T14:01:24;99837.63;;;12.25;82.57
19594;BME280;9944;48.240;16.478;2022-10-22T14:05:28;99838.50;;;12.24;82.45
19594;BME280;9944;48.240;16.478;2022-10-22T14:09:34;99842.91;;;12.25;82.41
19594;BME280;9944;48.240;16.478;2022-10-22T14:13:38;99848.25;;;12.21;82.34
19594;BME280;9944;48.240;16.478;2022-10-22T14:17:43;99852.69;;;12.19;82.47
19594;BME280;9944;48.240;16.478;2022-10-22T14:21:47;99851.75;;;12.20;82.85
19594;BME280;9944;48.240;16.478;2022-10-22T14:25:52;99848.25;;;12.18;82.86
19594;BME280;9944;48.240;16.478;2022-10-22T14:29:55;99849.13;;;12.18;82.59
19594;BME280;9944;48.240;16.478;2022-10-22T14:34:00;99843.91;;;12.15;82.68
19594;BME280;9944;48.240;16.478;2022-10-22T14:38:03;99850.06;;;12.16;83.07
19594;BME280;9944;48.240;16.478;2022-10-22T14:42:09;99848.25;;;12.19;82.79
19594;BME280;9944;48.240;16.478;2022-10-22T14:46:14;99859.72;;;12.20;83.01
19594;BME280;9944;48.240;16.478;2022-10-22T14:50:18;99858.84;;;12.21;82.80
19594;BME280;9944;48.240;16.478;2022-10-22T14:54:21;99852.66;;;12.20;83.06
19594;BME280;9944;48.240;16.478;2022-10-22T14:58:25;99859.69;;;12.21;83.00
19594;BME280;9944;48.240;16.478;2022-10-22T15:02:29;99852.66;;;12.20;82.94
19594;BME280;9944;48.240;16.478;2022-10-22T15:06:32;99856.19;;;12.19;82.87
19594;BME280;9944;48.240;16.478;2022-10-22T15:10:35;99859.72;;;12.18;82.95
19594;BME280;9944;48.240;16.478;2022-10-22T15:14:39;99870.31;;;12.18;82.89
19594;BME280;9944;48.240;16.478;2022-10-22T15:18:42;99869.47;;;12.15;83.15
19594;BME280;9944;48.240;16.478;2022-10-22T15:22:45;99880.94;;;12.15;82.91
19594;BME280;9944;48.240;16.478;2022-10-22T15:26:48;99875.69;;;12.09;83.00
19594;BME280;9944;48.240;16.478;2022-10-22T15:30:56;99879.28;;;12.02;83.03
19594;BME280;9944;48.240;16.478;2022-10-22T15:34:59;99869.63;;;11.99;83.24
19594;BME280;9944;48.240;16.478;2022-10-22T15:39:06;99869.63;;;11.96;83.14
19594;BME280;9944;48.240;16.478;2022-10-22T15:43:09;99893.47;;;11.94;83.46
19594;BME280;9944;48.240;16.478;2022-10-22T15:47:14;99890.81;;;11.94;83.53
19594;BME280;9944;48.240;16.478;2022-10-22T15:51:18;99892.59;;;11.92;83.37
19594;BME280;9944;48.240;16.478;2022-10-22T15:55:22;99892.63;;;11.89;83.15
19594;BME280;9944;48.240;16.478;2022-10-22T15:59:25;99889.97;;;11.86;83.43
19594;BME280;9944;48.240;16.478;2022-10-22T16:03:29;99905.91;;;11.80;83.74
19594;BME280;9944;48.240;16.478;2022-10-22T16:07:37;99905.94;;;11.74;83.35
19594;BME280;9944;48.240;16.478;2022-10-22T16:11:41;99916.53;;;11.72;83.85
19594;BME280;9944;48.240;16.478;2022-10-22T16:15:44;99921.84;;;11.69;83.60
19594;BME280;9944;48.240;16.478;2022-10-22T16:19:49;99922.75;;;11.64;83.79
19594;BME280;9944;48.240;16.478;2022-10-22T16:23:52;99927.19;;;11.62;84.08
19594;BME280;9944;48.240;16.478;2022-10-22T16:27:55;99950.13;;;11.60;84.17
19594;BME280;9944;48.240;16.478;2022-10-22T16:31:58;99957.19;;;11.58;84.48
19594;BME280;9944;48.240;16.478;2022-10-22T16:36:03;99961.56;;;11.57;84.48
19594;BME280;9944;48.240;16.478;2022-10-22T16:40:08;99971.28;;;11.56;84.67
19594;BME280;9944;48.240;16.478;2022-10-22T16:44:11;99976.56;;;11.56;84.77
19594;BME280;9944;48.240;16.478;2022-10-22T16:48:14;99989.78;;;11.56;84.67
19594;BME280;9944;48.240;16.478;2022-10-22T16:52:19;99993.31;;;11.54;84.86
19594;BME280;9944;48.240;16.478;2022-10-22T16:56:23;99993.34;;;11.52;85.02
19594;BME280;9944;48.240;16.478;2022-10-22T17:00:27;100001.22;;;11.55;85.49
19594;BME280;9944;48.240;16.478;2022-10-22T17:04:30;100003.84;;;11.66;85.90
19594;BME280;9944;48.240;16.478;2022-10-22T17:08:36;99992.28;;;11.84;86.33
19594;BME280;9944;48.240;16.478;2022-10-22T17:12:40;99993.06;;;11.99;85.78
19594;BME280;9944;48.240;16.478;2022-10-22T17:16:44;99984.19;;;12.10;85.60
19594;BME280;9944;48.240;16.478;2022-10-22T17:20:49;100001.75;;;12.21;85.12
19594;BME280;9944;48.240;16.478;2022-10-22T17:25:07;100004.38;;;12.25;84.75
19594;BME280;9944;48.240;16.478;2022-10-22T17:29:11;100018.47;;;12.30;84.88
19594;BME280;9944;48.240;16.478;2022-10-22T17:33:14;100011.38;;;12.34;83.92
19594;BME280;9944;48.240;16.478;2022-10-22T17:37:17;100013.97;;;12.37;83.76
19594;BME280;9944;48.240;16.478;2022-10-22T17:41:25;100011.31;;;12.39;83.81
19594;BME280;9944;48.240;16.478;2022-10-22T17:45:28;100021.88;;;12.43;83.83
19594;BME280;9944;48.240;16.478;2022-10-22T17:49:31;100023.66;;;12.43;83.28
19594;BME280;9944;48.240;16.478;2022-10-22T17:53:35;100028.94;;;12.43;83.31
19594;BME280;9944;48.240;16.478;2022-10-22T17:57:40;100028.03;;;12.44;82.98
19594;BME280;9944;48.240;16.478;2022-10-22T18:01:44;100027.16;;;12.45;83.03
19594;BME280;9944;48.240;16.478;2022-10-22T18:05:48;100028.88;;;12.49;82.77
19594;BME280;9944;48.240;16.478;2022-10-22T18:09:51;100043.88;;;12.53;82.58
19594;BME280;9944;48.240;16.478;2022-10-22T18:13:56;100048.25;;;12.57;82.48
19594;BME280;9944;48.240;16.478;2022-10-22T18:17:59;100046.47;;;12.62;81.89
19594;BME280;9944;48.240;16.478;2022-10-22T18:22:02;100052.63;;;12.66;81.65
19594;BME280;9944;48.240;16.478;2022-10-22T18:26:06;100044.66;;;12.71;81.36
19594;BME280;9944;48.240;16.478;2022-10-22T18:30:11;100040.19;;;12.77;81.08
19594;BME280;9944;48.240;16.478;2022-10-22T18:34:14;100043.69;;;12.79;80.95
19594;BME280;9944;48.240;16.478;2022-10-22T18:38:22;100063.09;;;12.81;80.82
19594;BME280;9944;48.240;16.478;2022-10-22T18:42:25;100053.38;;;12.82;80.67
19594;BME280;9944;48.240;16.478;2022-10-22T18:46:35;100057.81;;;12.78;80.52
19594;BME280;9944;48.240;16.478;2022-10-22T18:50:40;100063.97;;;12.79;80.54
19594;BME280;9944;48.240;16.478;2022-10-22T18:54:43;100071.06;;;12.78;80.47
19594;BME280;9944;48.240;16.478;2022-10-22T18:58:47;100069.28;;;12.79;80.73
19594;BME280;9944;48.240;16.478;2022-10-22T19:02:57;100075.50;;;12.78;80.70
19594;BME280;9944;48.240;16.478;2022-10-22T19:07:00;100075.50;;;12.76;80.64
19594;BME280;9944;48.240;16.478;2022-10-22T19:11:08;100079.03;;;12.75;80.47
19594;BME280;9944;48.240;16.478;2022-10-22T19:15:11;100086.97;;;12.75;80.38
19594;BME280;9944;48.240;16.478;2022-10-22T19:19:18;100085.22;;;12.76;80.13
19594;BME280;9944;48.240;16.478;2022-10-22T19:23:21;100094.91;;;12.78;80.38
19594;BME280;9944;48.240;16.478;2022-10-22T19:27:24;100096.69;;;12.76;80.07
19594;BME280;9944;48.240;16.478;2022-10-22T19:31:28;100103.81;;;12.69;80.15
19594;BME280;9944;48.240;16.478;2022-10-22T19:35:35;100115.31;;;12.65;80.05
19594;BME280;9944;48.240;16.478;2022-10-22T19:39:38;100132.16;;;12.58;79.67
19594;BME280;9944;48.240;16.478;2022-10-22T19:43:42;100128.59;;;12.55;80.02
19594;BME280;9944;48.240;16.478;2022-10-22T19:47:45;100126.84;;;12.50;79.98
19594;BME280;9944;48.240;16.478;2022-10-22T19:51:49;100133.94;;;12.45;79.89
19594;BME280;9944;48.240;16.478;2022-10-22T19:55:52;100126.94;;;12.38;79.93
19594;BME280;9944;48.240;16.478;2022-10-22T19:59:55;100141.97;;;12.31;79.79
19594;BME280;9944;48.240;16.478;2022-10-22T20:03:58;100142.03;;;12.25;79.90
19594;BME280;9944;48.240;16.478;2022-10-22T20:08:03;100142.03;;;12.22;79.98
19594;BME280;9944;48.240;16.478;2022-10-22T20:12:07;100138.53;;;12.17;80.10
19594;BME280;9944;48.240;16.478;2022-10-22T20:16:10;100143.81;;;12.14;80.15
19594;BME280;9944;48.240;16.478;2022-10-22T20:20:14;100139.44;;;12.07;79.79
19594;BME280;9944;48.240;16.478;2022-10-22T20:24:18;100143.88;;;11.99;79.92
19594;BME280;9944;48.240;16.478;2022-10-22T20:28:21;100133.34;;;11.89;80.04
19594;BME280;9944;48.240;16.478;2022-10-22T20:32:24;100141.28;;;11.83;79.71
19594;BME280;9944;48.240;16.478;2022-10-22T20:36:30;100147.50;;;11.73;79.66
19594;BME280;9944;48.240;16.478;2022-10-22T20:40:35;100142.25;;;11.61;79.86
19594;BME280;9944;48.240;16.478;2022-10-22T20:44:38;100151.94;;;11.55;80.45
19594;BME280;9944;48.240;16.478;2022-10-22T20:48:42;100161.66;;;11.53;80.80
19594;BME280;9944;48.240;16.478;2022-10-22T20:52:46;100158.13;;;11.54;80.88
19594;BME280;9944;48.240;16.478;2022-10-22T20:56:51;100164.28;;;11.55;81.15
19594;BME280;9944;48.240;16.478;2022-10-22T21:00:54;100165.16;;;11.55;81.42
19594;BME280;9944;48.240;16.478;2022-10-22T21:04:58;100164.28;;;11.55;81.28
19594;BME280;9944;48.240;16.478;2022-10-22T21:09:01;100173.09;;;11.54;81.13
19594;BME280;9944;48.240;16.478;2022-10-22T21:13:05;100162.53;;;11.52;81.33
19594;BME280;9944;48.240;16.478;2022-10-22T21:17:08;100170.44;;;11.55;81.45
19594;BME280;9944;48.240;16.478;2022-10-22T21:21:11;100171.34;;;11.58;81.65
19594;BME280;9944;48.240;16.478;2022-10-22T21:25:15;100175.75;;;11.59;81.75
19594;BME280;9944;48.240;16.478;2022-10-22T21:29:19;100181.91;;;11.61;81.56
19594;BME280;9944;48.240;16.478;2022-10-22T21:33:22;100186.31;;;11.62;81.71
19594;BME280;9944;48.240;16.478;2022-10-22T21:37:25;100181.91;;;11.62;81.51
19594;BME280;9944;48.240;16.478;2022-10-22T21:41:30;100179.25;;;11.61;81.47
19594;BME280;9944;48.240;16.478;2022-10-22T21:45:35;100181.03;;;11.62;81.54